createdAt,value
2022-10-17T00:02:14.332Z,14.69
2022-10-17T00:04:40.900Z,14.74
2022-10-17T00:07:07.304Z,14.82
2022-10-17T00:09:33.768Z,14.78
2022-10-17T00:12:00.387Z,14.80
2022-10-17T00:14:26.796Z,14.98
2022-10-17T00:16:53.338Z,14.99
2022-10-17T00:19:19.850Z,15.03
2022-10-17T00:21:46.377Z,15.06
2022-10-17T00:24:12.897Z,15.04
2022-10-17T00:26:40.467Z,14.72
2022-10-17T00:29:06.886Z,14.79
2022-10-17T00:31:33.409Z,14.94
2022-10-17T00:33:59.733Z,14.71
2022-10-17T00:36:26.603Z,14.81
2022-10-17T00:38:55.946Z,14.97
2022-10-17T00:41:25.307Z,14.98
2022-10-17T00:43:56.197Z,15.01
2022-10-17T00:46:25.629Z,14.87
2022-10-17T00:48:54.615Z,14.71
2022-10-17T00:51:27.775Z,14.98
2022-10-17T00:53:54.217Z,14.60
2022-10-17T00:56:21.337Z,14.43
2022-10-17T00:58:47.984Z,14.88
2022-10-17T01:01:14.655Z,14.70
2022-10-17T01:03:41.191Z,14.56
2022-10-17T01:06:07.525Z,14.74
2022-10-17T01:08:34.176Z,14.67
2022-10-17T01:11:17.483Z,14.64
2022-10-17T01:13:54.396Z,14.48
2022-10-17T01:16:43.504Z,14.58
2022-10-17T01:19:42.473Z,14.55
2022-10-17T01:22:33.531Z,14.41
2022-10-17T01:25:10.657Z,14.06
2022-10-17T01:28:00.855Z,14.54
2022-10-17T01:30:56.101Z,14.51
2022-10-17T01:33:41.348Z,14.38
2022-10-17T01:36:45.156Z,14.55
2022-10-17T01:39:38.395Z,14.52
2022-10-17T01:42:17.858Z,14.51
2022-10-17T01:44:54.060Z,14.51
2022-10-17T01:47:25.482Z,14.54
2022-10-17T01:49:54.751Z,14.39
2022-10-17T01:52:30.046Z,14.50
2022-10-17T01:55:19.329Z,14.41
2022-10-17T01:57:56.052Z,14.14
2022-10-17T02:00:26.137Z,14.36
2022-10-17T02:02:59.226Z,14.49
2022-10-17T02:05:31.822Z,14.18
2022-10-17T02:07:58.246Z,14.32
2022-10-17T02:10:54.979Z,14.34
2022-10-17T02:13:37.347Z,14.02
2022-10-17T02:16:06.462Z,14.43
2022-10-17T02:18:54.547Z,14.42
2022-10-17T02:21:33.331Z,14.01
2022-10-17T02:24:21.500Z,14.37
2022-10-17T02:26:59.887Z,14.28
2022-10-17T02:29:32.770Z,14.37
2022-10-17T02:32:04.902Z,14.36
2022-10-17T02:34:50.681Z,14.38
2022-10-17T02:37:21.770Z,14.21
2022-10-17T02:39:50.347Z,14.26
2022-10-17T02:42:17.996Z,13.87
2022-10-17T02:44:45.785Z,13.87
2022-10-17T02:47:43.107Z,14.28
2022-10-17T02:50:10.308Z,14.17
2022-10-17T02:52:52.323Z,14.24
2022-10-17T02:55:24.092Z,14.24
2022-10-17T02:57:54.126Z,14.27
2022-10-17T03:00:22.479Z,14.26
2022-10-17T03:02:51.502Z,14.27
2022-10-17T03:05:23.981Z,14.21
2022-10-17T03:07:50.532Z,14.21
2022-10-17T03:10:17.900Z,13.97
2022-10-17T03:12:44.668Z,14.21
2022-10-17T03:15:12.072Z,14.25
2022-10-17T03:17:38.960Z,14.32
2022-10-17T03:20:06.841Z,14.32
2022-10-17T03:22:33.540Z,14.34
2022-10-17T03:24:59.882Z,14.30
2022-10-17T03:27:26.588Z,14.20
2022-10-17T03:29:53.133Z,14.02
2022-10-17T03:32:19.488Z,14.33
2022-10-17T03:34:45.795Z,14.18
2022-10-17T03:37:12.091Z,14.35
2022-10-17T03:39:38.445Z,14.41
2022-10-17T03:42:04.786Z,14.43
2022-10-17T03:44:31.108Z,14.25
2022-10-17T03:46:57.870Z,14.18
2022-10-17T03:49:24.253Z,14.40
2022-10-17T03:51:50.569Z,14.20
2022-10-17T03:54:16.925Z,14.44
2022-10-17T03:56:43.842Z,14.14
2022-10-17T03:59:14.124Z,14.52
2022-10-17T04:01:40.962Z,14.59
2022-10-17T04:04:07.460Z,14.06
2022-10-17T04:06:33.896Z,14.53
2022-10-17T04:09:00.413Z,14.25
2022-10-17T04:11:26.737Z,14.20
2022-10-17T04:13:55.098Z,14.52
2022-10-17T04:16:22.292Z,14.45
2022-10-17T04:18:53.290Z,14.46
2022-10-17T04:21:19.741Z,14.12
2022-10-17T04:23:46.114Z,14.03
2022-10-17T04:26:12.497Z,14.45
2022-10-17T04:31:13.074Z,14.42
2022-10-17T04:33:39.848Z,14.45
2022-10-17T04:36:10.192Z,13.89
2022-10-17T04:38:36.716Z,14.30
2022-10-17T04:41:06.686Z,13.95
2022-10-17T04:43:35.777Z,14.34
2022-10-17T04:46:04.751Z,14.01
2022-10-17T04:48:31.569Z,14.14
2022-10-17T04:51:03.548Z,14.43
2022-10-17T04:53:35.201Z,14.48
2022-10-17T04:56:02.078Z,14.44
2022-10-17T04:58:29.949Z,13.96
2022-10-17T05:00:56.569Z,14.40
2022-10-17T05:03:22.896Z,14.42
2022-10-17T05:05:49.227Z,14.42
2022-10-17T05:08:15.863Z,14.33
2022-10-17T05:10:44.420Z,14.48
2022-10-17T05:13:11.720Z,13.28
2022-10-17T05:15:38.186Z,14.27
2022-10-17T05:18:06.079Z,14.54
2022-10-17T05:20:33.258Z,14.62
2022-10-17T05:23:00.124Z,14.67
2022-10-17T05:25:26.430Z,14.64
2022-10-17T05:27:53.793Z,14.73
2022-10-17T05:30:20.218Z,14.60
2022-10-17T05:32:46.582Z,14.73
2022-10-17T05:35:13.046Z,14.69
2022-10-17T05:37:39.396Z,14.72
2022-10-17T05:40:06.201Z,14.53
2022-10-17T05:42:33.141Z,14.88
2022-10-17T05:44:59.673Z,14.92
2022-10-17T05:47:26.040Z,14.92
2022-10-17T05:49:52.757Z,14.83
2022-10-17T05:52:19.279Z,14.58
2022-10-17T05:54:45.839Z,14.75
2022-10-17T05:57:12.148Z,14.83
2022-10-17T05:59:38.509Z,14.71
2022-10-17T06:02:04.915Z,14.70
2022-10-17T06:04:31.356Z,14.84
2022-10-17T06:06:57.789Z,14.81
2022-10-17T06:09:24.435Z,14.44
2022-10-17T06:11:50.840Z,14.63
2022-10-17T06:14:17.393Z,14.69
2022-10-17T06:16:43.766Z,14.82
2022-10-17T06:19:11.460Z,14.83
2022-10-17T06:21:38.806Z,14.26
2022-10-17T06:24:05.419Z,14.60
2022-10-17T06:26:31.839Z,14.77
2022-10-17T06:28:58.270Z,14.41
2022-10-17T06:31:24.701Z,14.55
2022-10-17T06:33:51.218Z,14.91
2022-10-17T06:36:17.711Z,14.65
2022-10-17T06:38:44.032Z,14.94
2022-10-17T06:41:14.384Z,14.80
2022-10-17T06:43:43.390Z,14.98
2022-10-17T06:46:09.711Z,15.01
2022-10-17T06:48:36.161Z,15.16
2022-10-17T06:51:04.559Z,15.22
2022-10-17T06:53:32.902Z,15.06
2022-10-17T06:56:03.029Z,15.02
2022-10-17T06:58:34.351Z,15.32
2022-10-17T07:03:41.154Z,14.38
2022-10-17T07:06:10.740Z,15.59
2022-10-17T07:08:37.492Z,15.69
2022-10-17T07:11:15.740Z,15.63
2022-10-17T07:13:42.794Z,15.45
2022-10-17T07:16:09.810Z,15.70
2022-10-17T07:18:36.270Z,15.75
2022-10-17T07:21:03.909Z,16.07
2022-10-17T07:23:30.605Z,15.97
2022-10-17T07:26:02.262Z,16.20
2022-10-17T07:28:29.115Z,16.25
2022-10-17T07:30:55.488Z,16.34
2022-10-17T07:33:21.887Z,16.02
2022-10-17T07:35:48.349Z,16.23
2022-10-17T07:38:14.662Z,16.21
2022-10-17T07:40:40.991Z,16.74
2022-10-17T07:43:07.339Z,16.89
2022-10-17T07:45:33.642Z,16.91
2022-10-17T07:48:00.011Z,16.94
2022-10-17T07:50:26.384Z,16.90
2022-10-17T07:52:52.741Z,16.85
2022-10-17T07:55:19.095Z,16.68
2022-10-17T07:57:45.462Z,17.23
2022-10-17T08:00:12.094Z,17.12
2022-10-17T08:02:38.501Z,17.30
2022-10-17T08:05:05.226Z,17.36
2022-10-17T08:07:31.593Z,17.41
2022-10-17T08:09:58.057Z,17.40
2022-10-17T08:12:25.859Z,17.22
2022-10-17T08:14:52.201Z,17.45
2022-10-17T08:17:18.511Z,17.01
2022-10-17T08:19:44.830Z,17.61
2022-10-17T08:22:11.342Z,17.43
2022-10-17T08:24:37.876Z,17.81
2022-10-17T08:27:11.099Z,17.81
2022-10-17T08:29:38.451Z,18.09
2022-10-17T08:32:07.666Z,18.27
2022-10-17T08:34:35.349Z,18.26
2022-10-17T08:37:01.725Z,18.62
2022-10-17T08:39:28.175Z,18.68
2022-10-17T08:41:54.482Z,19.03
2022-10-17T08:44:46.142Z,19.16
2022-10-17T08:47:29.095Z,19.08
2022-10-17T08:50:03.240Z,19.04
2022-10-17T08:52:39.111Z,18.57
2022-10-17T08:57:49.503Z,19.09
2022-10-17T09:00:21.492Z,19.20
2022-10-17T09:03:06.177Z,19.32
2022-10-17T09:05:49.235Z,19.26
2022-10-17T09:08:35.777Z,19.27
2022-10-17T09:11:25.289Z,18.95
2022-10-17T09:14:20.710Z,19.11
2022-10-17T09:17:04.679Z,19.15
2022-10-17T09:19:36.623Z,19.34
2022-10-17T09:22:09.461Z,19.66
2022-10-17T09:24:38.880Z,19.89
2022-10-17T09:27:11.523Z,19.77
2022-10-17T09:29:42.898Z,19.86
2022-10-17T09:32:19.684Z,19.76
2022-10-17T09:34:46.104Z,19.96
2022-10-17T09:37:17.143Z,19.59
2022-10-17T09:39:44.606Z,20.03
2022-10-17T09:42:18.598Z,20.06
2022-10-17T09:44:56.084Z,19.76
2022-10-17T09:47:41.281Z,19.81
2022-10-17T09:50:28.561Z,19.85
2022-10-17T09:52:59.274Z,19.77
2022-10-17T09:55:36.727Z,19.55
2022-10-17T09:58:05.559Z,19.77
2022-10-17T10:00:38.593Z,19.51
2022-10-17T10:03:22.786Z,19.60
2022-10-17T10:06:15.358Z,19.63
2022-10-17T10:09:04.900Z,19.45
2022-10-17T10:11:54.596Z,19.52
2022-10-17T10:14:36.124Z,19.31
2022-10-17T10:17:05.147Z,19.40
2022-10-17T10:19:38.693Z,19.47
2022-10-17T10:22:17.108Z,19.55
2022-10-17T10:24:43.427Z,19.27
2022-10-17T10:27:15.279Z,19.53
2022-10-17T10:29:48.144Z,19.69
2022-10-17T10:35:19.323Z,19.70
2022-10-17T10:37:51.906Z,19.60
2022-10-17T10:40:20.274Z,19.81
2022-10-17T10:42:50.402Z,19.75
2022-10-17T10:48:51.816Z,19.69
2022-10-17T10:51:24.459Z,19.78
2022-10-17T10:54:01.455Z,19.80
2022-10-17T10:56:48.796Z,19.79
2022-10-17T10:59:25.248Z,19.34
2022-10-17T11:01:57.663Z,19.79
2022-10-17T11:04:36.136Z,19.32
2022-10-17T11:07:27.287Z,19.63
2022-10-17T11:09:56.597Z,19.53
2022-10-17T11:12:28.954Z,19.48
2022-10-17T11:15:22.294Z,19.60
2022-10-17T11:17:57.274Z,19.56
2022-10-17T11:20:32.828Z,19.91
2022-10-17T11:23:10.990Z,20.04
2022-10-17T11:25:39.505Z,20.11
2022-10-17T11:28:17.729Z,20.09
2022-10-17T11:30:52.374Z,20.08
2022-10-17T11:33:27.780Z,19.95
2022-10-17T11:35:59.532Z,20.02
2022-10-17T11:38:46.717Z,20.10
2022-10-17T11:41:24.194Z,20.14
2022-10-17T11:44:03.940Z,20.21
2022-10-17T11:46:34.114Z,20.32
2022-10-17T11:49:20.088Z,19.97
2022-10-17T11:52:01.125Z,20.52
2022-10-17T11:55:10.883Z,20.60
2022-10-17T11:57:48.792Z,20.37
2022-10-17T12:00:31.292Z,20.65
2022-10-17T12:02:59.511Z,20.50
2022-10-17T12:05:37.377Z,20.46
2022-10-17T12:08:08.034Z,20.40
2022-10-17T12:10:46.469Z,20.27
2022-10-17T12:13:52.632Z,20.31
2022-10-17T12:16:21.793Z,20.16
2022-10-17T12:18:52.824Z,20.15
2022-10-17T12:21:19.470Z,20.20
2022-10-17T12:23:55.770Z,20.25
2022-10-17T12:26:40.350Z,20.17
2022-10-17T12:29:29.852Z,20.24
2022-10-17T12:32:11.792Z,19.55
2022-10-17T12:34:38.897Z,20.01
2022-10-17T12:37:05.414Z,19.91
2022-10-17T12:39:34.623Z,19.88
2022-10-17T12:42:00.973Z,19.81
2022-10-17T12:44:28.763Z,19.77
2022-10-17T12:47:29.201Z,18.88
2022-10-17T12:49:56.772Z,19.64
2022-10-17T12:52:32.238Z,19.61
2022-10-17T12:55:13.944Z,19.55
2022-10-17T12:58:02.308Z,19.06
2022-10-17T13:00:59.499Z,19.29
2022-10-17T13:03:33.488Z,19.40
2022-10-17T13:06:06.243Z,19.32
2022-10-17T13:08:43.173Z,19.50
2022-10-17T13:11:16.014Z,19.18
2022-10-17T13:13:56.142Z,19.00
2022-10-17T13:16:51.583Z,19.51
2022-10-17T13:19:23.776Z,19.52
2022-10-17T13:22:06.340Z,19.33
2022-10-17T13:24:44.194Z,19.74
2022-10-17T13:27:30.203Z,19.76
2022-10-17T13:29:58.609Z,19.84
2022-10-17T13:32:27.724Z,19.79
2022-10-17T13:35:13.720Z,19.79
2022-10-17T13:37:54.221Z,19.21
2022-10-17T13:40:49.686Z,19.75
2022-10-17T13:43:20.538Z,19.75
2022-10-17T13:45:53.909Z,19.59
2022-10-17T13:48:30.882Z,19.83
2022-10-17T13:51:03.416Z,19.85
2022-10-17T13:53:41.566Z,19.88
2022-10-17T13:56:29.564Z,19.42
2022-10-17T13:59:07.984Z,19.93
2022-10-17T14:01:34.723Z,19.50
2022-10-17T14:04:09.664Z,19.80
2022-10-17T14:06:49.573Z,20.06
2022-10-17T14:09:25.310Z,20.12
2022-10-17T14:12:02.971Z,20.08
2022-10-17T14:14:30.434Z,19.86
2022-10-17T14:17:14.983Z,20.14
2022-10-17T14:19:41.336Z,20.15
2022-10-17T14:22:23.068Z,20.15
2022-10-17T14:24:52.029Z,19.89
2022-10-17T14:27:36.658Z,19.45
2022-10-17T14:30:09.711Z,19.98
2022-10-17T14:32:37.697Z,20.03
2022-10-17T14:35:30.213Z,20.00
2022-10-17T14:37:57.878Z,19.96
2022-10-17T14:40:27.427Z,19.94
2022-10-17T14:42:59.606Z,19.66
2022-10-17T14:45:32.997Z,19.93
2022-10-17T14:48:06.435Z,19.97
2022-10-17T14:50:33.473Z,19.63
2022-10-17T14:53:07.153Z,19.93
2022-10-17T14:55:55.042Z,18.98
2022-10-17T14:58:32.915Z,19.86
2022-10-17T15:01:01.249Z,19.25
2022-10-17T15:03:27.938Z,19.84
2022-10-17T15:05:55.170Z,19.80
2022-10-17T15:08:23.941Z,19.74
2022-10-17T15:10:51.308Z,19.67
2022-10-17T15:13:28.845Z,19.58
2022-10-17T15:15:58.836Z,18.99
2022-10-17T15:18:25.116Z,19.21
2022-10-17T15:20:59.598Z,19.43
2022-10-17T15:23:31.548Z,19.17
2022-10-17T15:26:06.513Z,18.95
2022-10-17T15:28:35.294Z,19.03
2022-10-17T15:31:01.640Z,19.15
2022-10-17T15:33:35.766Z,18.56
2022-10-17T15:36:05.472Z,18.78
2022-10-17T15:38:31.786Z,18.87
2022-10-17T15:41:00.498Z,18.79
2022-10-17T15:43:29.749Z,18.92
2022-10-17T15:45:56.362Z,18.90
2022-10-17T15:48:31.554Z,18.58
2022-10-17T15:50:57.855Z,18.68
2022-10-17T15:53:27.020Z,18.74
2022-10-17T15:55:56.465Z,18.67
2022-10-17T15:58:22.873Z,18.61
2022-10-17T16:00:51.176Z,18.56
2022-10-17T16:03:17.717Z,18.51
2022-10-17T16:05:44.105Z,18.43
2022-10-17T16:08:13.089Z,18.37
2022-10-17T16:10:40.547Z,18.28
2022-10-17T16:13:12.213Z,17.83
2022-10-17T16:15:41.987Z,17.91
2022-10-17T16:18:10.068Z,17.98
2022-10-17T16:20:38.213Z,17.88
2022-10-17T16:23:07.379Z,17.98
2022-10-17T16:25:34.390Z,17.80
2022-10-17T16:28:01.981Z,17.24
2022-10-17T16:30:30.605Z,17.83
2022-10-17T16:33:02.435Z,17.70
2022-10-17T16:35:53.392Z,17.48
2022-10-17T16:38:19.820Z,14.83
2022-10-17T16:40:46.133Z,17.58
2022-10-17T16:43:13.764Z,17.32
2022-10-17T16:45:47.607Z,17.17
2022-10-17T16:48:14.706Z,17.08
2022-10-17T16:50:46.510Z,17.44
2022-10-17T16:53:12.925Z,17.39
2022-10-17T16:55:39.782Z,16.73
2022-10-17T16:58:06.429Z,17.32
2022-10-17T17:00:33.051Z,16.50
2022-10-17T17:02:59.733Z,15.38
2022-10-17T17:05:26.187Z,17.22
2022-10-17T17:07:52.873Z,16.33
2022-10-17T17:10:22.096Z,17.17
2022-10-17T17:12:48.770Z,17.13
2022-10-17T17:15:15.277Z,16.30
2022-10-17T17:17:50.482Z,17.11
2022-10-17T17:20:19.897Z,17.07
2022-10-17T17:22:46.400Z,17.07
2022-10-17T17:25:12.947Z,17.03
2022-10-17T17:27:39.337Z,15.86
2022-10-17T17:30:06.256Z,16.73
2022-10-17T17:32:38.099Z,16.93
2022-10-17T17:35:07.073Z,16.94
2022-10-17T17:37:33.636Z,16.91
2022-10-17T17:40:03.006Z,16.65
2022-10-17T17:42:29.384Z,16.86
2022-10-17T17:44:58.507Z,16.66
2022-10-17T17:47:45.458Z,16.54
2022-10-17T17:50:11.945Z,16.77
2022-10-17T17:52:41.862Z,16.75
2022-10-17T17:55:09.055Z,16.73
2022-10-17T17:57:40.208Z,16.05
2022-10-17T18:00:07.539Z,16.69
2022-10-17T18:02:37.687Z,16.66
2022-10-17T18:05:06.881Z,16.34
2022-10-17T18:07:37.397Z,16.62
2022-10-17T18:10:05.423Z,16.47
2022-10-17T18:12:32.960Z,16.34
2022-10-17T18:14:59.457Z,16.58
2022-10-17T18:17:26.041Z,16.21
2022-10-17T18:19:52.783Z,16.42
2022-10-17T18:22:19.258Z,16.53
2022-10-17T18:24:45.676Z,16.51
2022-10-17T18:27:15.798Z,16.40
2022-10-17T18:29:45.658Z,16.17
2022-10-17T18:32:15.145Z,16.08
2022-10-17T18:34:44.726Z,16.21
2022-10-17T18:37:13.701Z,16.43
2022-10-17T18:39:40.589Z,16.42
2022-10-17T18:42:07.133Z,16.34
2022-10-17T18:44:33.510Z,16.34
2022-10-17T18:47:03.767Z,16.12
2022-10-17T18:49:31.228Z,16.22
2022-10-17T18:51:57.893Z,16.32
2022-10-17T18:54:24.321Z,16.19
2022-10-17T18:56:55.172Z,16.29
2022-10-17T18:59:22.405Z,15.94
2022-10-17T19:01:52.255Z,16.21
2022-10-17T19:04:19.072Z,16.20
2022-10-17T19:06:45.453Z,15.85
2022-10-17T19:09:16.197Z,16.15
2022-10-17T19:11:45.781Z,15.92
2022-10-17T19:14:15.764Z,15.78
2022-10-17T19:16:45.426Z,16.08
2022-10-17T19:19:23.361Z,16.06
2022-10-17T19:21:51.013Z,15.92
2022-10-17T19:24:20.500Z,16.07
2022-10-17T19:26:51.014Z,16.04
2022-10-17T19:29:18.134Z,16.03
2022-10-17T19:31:45.542Z,15.99
2022-10-17T19:34:13.974Z,15.92
2022-10-17T19:36:41.247Z,15.71
2022-10-17T19:39:18.711Z,15.76
2022-10-17T19:41:57.605Z,15.59
2022-10-17T19:44:24.066Z,15.85
2022-10-17T19:46:50.675Z,15.75
2022-10-17T19:49:17.398Z,15.81
2022-10-17T19:51:44.432Z,15.81
2022-10-17T19:54:11.305Z,15.26
2022-10-17T19:56:38.163Z,15.46
2022-10-17T19:59:08.554Z,15.34
2022-10-17T20:01:41.560Z,15.76
2022-10-17T20:04:10.657Z,15.41
2022-10-17T20:06:37.593Z,15.66
2022-10-17T20:09:05.218Z,15.60
2022-10-17T20:11:35.265Z,15.36
2022-10-17T20:14:02.155Z,15.55
2022-10-17T20:16:32.785Z,15.24
2022-10-17T20:19:09.442Z,15.59
2022-10-17T20:21:39.241Z,15.26
2022-10-17T20:24:11.996Z,15.51
2022-10-17T20:26:43.976Z,15.35
2022-10-17T20:29:20.028Z,15.12
2022-10-17T20:31:47.895Z,15.19
2022-10-17T20:34:18.434Z,14.56
2022-10-17T20:36:45.595Z,15.45
2022-10-17T20:39:13.798Z,15.41
2022-10-17T20:41:40.736Z,15.16
2022-10-17T20:44:07.749Z,14.99
2022-10-17T20:46:39.823Z,15.14
2022-10-17T20:49:15.003Z,15.35
2022-10-17T20:51:44.856Z,15.33
2022-10-17T20:54:21.922Z,14.83
2022-10-17T20:56:50.285Z,15.24
2022-10-17T20:59:18.099Z,14.71
2022-10-17T21:01:45.502Z,14.54
2022-10-17T21:04:45.428Z,15.23
2022-10-17T21:06:59.389Z,15.24
2022-10-17T21:09:26.031Z,15.05
2022-10-17T21:11:55.097Z,15.07
2022-10-17T21:14:23.022Z,15.28
2022-10-17T21:16:49.444Z,15.22
2022-10-17T21:19:16.488Z,15.20
2022-10-17T21:21:45.693Z,15.19
2022-10-17T21:24:18.199Z,15.12
2022-10-17T21:26:46.217Z,15.16
2022-10-17T21:29:13.737Z,15.02
2022-10-17T21:31:43.380Z,15.15
2022-10-17T21:34:12.791Z,15.15
2022-10-17T21:36:39.186Z,15.11
2022-10-17T21:41:35.609Z,15.09
2022-10-17T21:44:07.754Z,15.10
2022-10-17T21:46:34.195Z,15.07
2022-10-17T21:49:00.816Z,15.06
2022-10-17T21:51:30.709Z,14.63
2022-10-17T21:53:57.685Z,15.05
2022-10-17T21:56:28.664Z,14.77
2022-10-17T21:58:58.369Z,15.12
2022-10-17T22:01:34.049Z,15.09
2022-10-17T22:04:06.753Z,14.89
2022-10-17T22:06:40.098Z,15.09
2022-10-17T22:09:12.224Z,15.12
2022-10-17T22:11:39.244Z,14.06
2022-10-17T22:14:15.172Z,15.14
2022-10-17T22:16:47.324Z,14.84
2022-10-17T22:19:19.438Z,15.15
2022-10-17T22:21:46.368Z,14.95
2022-10-17T22:24:16.195Z,15.14
2022-10-17T22:26:45.350Z,15.16
2022-10-17T22:29:12.402Z,15.16
2022-10-17T22:31:41.896Z,14.56
2022-10-17T22:34:13.296Z,15.14
2022-10-17T22:36:39.730Z,14.75
2022-10-17T22:39:10.580Z,13.50
2022-10-17T22:41:36.914Z,14.61
2022-10-17T22:44:03.739Z,14.07
2022-10-17T22:46:30.446Z,14.16
2022-10-17T22:48:59.549Z,14.30
2022-10-17T22:51:26.060Z,14.10
2022-10-17T22:53:52.609Z,15.08
2022-10-17T22:56:20.901Z,15.06
2022-10-17T22:58:52.036Z,15.08
2022-10-17T23:01:28.914Z,14.51
2022-10-17T23:03:55.330Z,15.04
2022-10-17T23:06:24.429Z,14.71
2022-10-17T23:08:54.205Z,14.69
2022-10-17T23:11:26.822Z,14.73
2022-10-17T23:13:53.162Z,15.02
2022-10-17T23:16:22.061Z,14.96
2022-10-17T23:37:50.744Z,14.68
2022-10-17T23:40:19.536Z,14.43
2022-10-17T23:42:45.897Z,14.78
2022-10-17T23:45:12.637Z,14.79
2022-10-17T23:47:39.371Z,14.41
2022-10-17T23:50:06.449Z,14.79
2022-10-17T23:52:32.781Z,14.78
2022-10-17T23:55:02.025Z,14.80
2022-10-17T23:57:29.188Z,14.83
2022-10-17T23:59:55.789Z,14.82
